createdAt,value
2022-08-14T00:01:59.447Z,77.87
2022-08-14T00:04:35.121Z,79.57
2022-08-14T00:07:10.760Z,79.38
2022-08-14T00:09:39.590Z,77.87
2022-08-14T00:12:24.765Z,77.42
2022-08-14T00:15:01.437Z,78.19
2022-08-14T00:17:31.292Z,81.13
2022-08-14T00:20:09.318Z,81.97
2022-08-14T00:22:56.207Z,81.72
2022-08-14T00:25:25.142Z,80.44
2022-08-14T00:28:10.867Z,79.61
2022-08-14T00:30:45.186Z,79.63
2022-08-14T00:33:16.507Z,79.65
2022-08-14T00:36:39.519Z,79.61
2022-08-14T00:38:35.265Z,80.83
2022-08-14T00:41:04.899Z,79.99
2022-08-14T00:43:32.810Z,79.28
2022-08-14T00:46:05.231Z,79.58
2022-08-14T00:48:38.258Z,77.35
2022-08-14T00:51:11.650Z,77.28
2022-08-14T00:53:43.112Z,76.63
2022-08-14T00:56:17.881Z,77.89
2022-08-14T00:58:48.370Z,77.34
2022-08-14T01:01:20.753Z,76.87
2022-08-14T01:03:52.971Z,75.57
2022-08-14T01:06:23.514Z,76.82
2022-08-14T01:08:59.750Z,77.08
2022-08-14T01:11:35.390Z,78.07
2022-08-14T01:14:25.353Z,79.46
2022-08-14T01:16:55.541Z,80.13
2022-08-14T01:19:41.913Z,79.00
2022-08-14T01:22:13.214Z,78.92
2022-08-14T01:24:46.885Z,78.86
2022-08-14T01:27:18.123Z,77.38
2022-08-14T01:30:03.406Z,79.71
2022-08-14T01:32:35.592Z,79.51
2022-08-14T01:35:20.774Z,79.38
2022-08-14T01:38:00.612Z,80.36
2022-08-14T01:40:36.323Z,80.91
2022-08-14T01:43:13.860Z,81.02
2022-08-14T01:45:41.635Z,81.52
2022-08-14T01:48:13.524Z,81.15
2022-08-14T01:50:42.622Z,80.00
2022-08-14T01:53:13.819Z,79.76
2022-08-14T01:55:42.303Z,82.05
2022-08-14T01:58:18.916Z,82.18
2022-08-14T02:00:54.378Z,82.95
2022-08-14T02:03:24.183Z,81.94
2022-08-14T02:05:59.854Z,81.98
2022-08-14T02:08:34.715Z,81.46
2022-08-14T02:11:18.801Z,81.16
2022-08-14T02:13:50.792Z,81.29
2022-08-14T02:16:22.283Z,82.32
2022-08-14T02:18:50.864Z,84.39
2022-08-14T02:21:23.297Z,83.44
2022-08-14T02:23:54.370Z,82.49
2022-08-14T02:26:29.358Z,82.20
2022-08-14T02:29:03.553Z,83.49
2022-08-14T02:31:42.379Z,83.55
2022-08-14T02:34:22.369Z,83.15
2022-08-14T02:37:03.574Z,83.10
2022-08-14T02:39:37.570Z,82.33
2022-08-14T02:42:06.636Z,82.94
2022-08-14T02:44:41.931Z,82.74
2022-08-14T02:47:15.198Z,82.50
2022-08-14T02:49:50.665Z,82.60
2022-08-14T02:52:55.792Z,82.62
2022-08-14T02:55:11.908Z,82.96
2022-08-14T02:57:45.040Z,83.18
2022-08-14T03:00:21.226Z,83.01
2022-08-14T03:02:59.154Z,84.06
2022-08-14T03:05:32.952Z,83.64
2022-08-14T03:08:08.073Z,84.15
2022-08-14T03:10:42.067Z,83.97
2022-08-14T03:13:20.861Z,84.43
2022-08-14T03:15:55.707Z,84.78
2022-08-14T03:18:31.828Z,84.61
2022-08-14T03:21:02.636Z,86.53
2022-08-14T03:23:33.969Z,87.26
2022-08-14T03:26:08.691Z,89.64
2022-08-14T03:28:42.343Z,90.64
2022-08-14T03:31:13.169Z,91.93
2022-08-14T03:33:41.817Z,91.92
2022-08-14T03:37:50.798Z,93.36
2022-08-14T03:39:14.271Z,94.66
2022-08-14T03:41:51.340Z,99.21
2022-08-14T03:45:27.808Z,98.25
2022-08-14T03:47:08.229Z,96.46
2022-08-14T03:49:40.425Z,95.54
2022-08-14T03:52:17.989Z,94.82
2022-08-14T03:54:59.166Z,94.88
2022-08-14T03:57:32.890Z,94.71
2022-08-14T04:00:27.610Z,92.40
2022-08-14T04:02:58.771Z,98.21
2022-08-14T04:05:26.861Z,99.39
2022-08-14T04:08:08.345Z,96.87
2022-08-14T04:10:42.247Z,94.05
2022-08-14T04:13:11.414Z,93.72
2022-08-14T04:15:56.671Z,92.71
2022-08-14T04:18:26.994Z,92.45
2022-08-14T04:20:55.801Z,92.37
2022-08-14T04:23:32.639Z,92.81
2022-08-14T04:26:04.786Z,92.85
2022-08-14T04:29:02.197Z,92.09
2022-08-14T04:33:01.834Z,92.57
2022-08-14T04:34:20.618Z,92.29
2022-08-14T04:37:09.116Z,90.90
2022-08-14T04:39:56.747Z,91.77
2022-08-14T04:42:47.345Z,91.33
2022-08-14T04:45:21.474Z,92.06
2022-08-14T04:48:10.087Z,92.40
2022-08-14T04:50:45.043Z,92.77
2022-08-14T04:53:15.643Z,94.34
2022-08-14T04:55:51.424Z,94.58
2022-08-14T04:58:21.626Z,94.03
2022-08-14T05:00:52.290Z,93.33
2022-08-14T05:03:20.979Z,94.45
2022-08-14T05:05:50.429Z,94.70
2022-08-14T05:08:32.240Z,95.47
2022-08-14T05:11:13.328Z,94.41
2022-08-14T05:16:31.121Z,93.93
2022-08-14T05:19:25.084Z,93.61
2022-08-14T05:21:56.619Z,93.40
2022-08-14T05:24:28.877Z,92.42
2022-08-14T05:26:56.793Z,91.87
2022-08-14T05:29:24.468Z,90.12
2022-08-14T05:31:57.321Z,89.66
2022-08-14T05:34:32.072Z,90.45
2022-08-14T05:37:02.299Z,91.94
2022-08-14T05:39:31.708Z,89.71
2022-08-14T05:42:00.585Z,91.08
2022-08-14T05:44:30.832Z,91.26
2022-08-14T05:47:00.304Z,91.20
2022-08-14T05:49:33.348Z,90.47
2022-08-14T05:52:02.172Z,88.56
2022-08-14T05:54:35.311Z,87.45
2022-08-14T05:57:04.444Z,87.46
2022-08-14T05:59:38.797Z,87.03
2022-08-14T06:02:10.183Z,87.19
2022-08-14T06:04:38.431Z,86.61
2022-08-14T06:07:06.438Z,87.58
2022-08-14T06:09:35.861Z,85.75
2022-08-14T06:12:09.157Z,86.00
2022-08-14T06:14:36.819Z,85.26
2022-08-14T06:17:04.869Z,85.15
2022-08-14T06:19:34.029Z,85.32
2022-08-14T06:22:01.773Z,84.09
2022-08-14T06:24:34.870Z,84.27
2022-08-14T06:27:04.382Z,84.92
2022-08-14T06:29:34.664Z,84.76
2022-08-14T06:32:36.585Z,83.74
2022-08-14T06:35:02.140Z,82.11
2022-08-14T06:37:40.222Z,81.27
2022-08-14T06:40:25.758Z,80.26
2022-08-14T06:42:56.968Z,80.04
2022-08-14T06:45:28.541Z,80.17
2022-08-14T06:47:58.902Z,78.37
2022-08-14T06:50:30.827Z,76.07
2022-08-14T06:53:01.254Z,74.42
2022-08-14T06:55:29.492Z,74.21
2022-08-14T06:57:58.115Z,75.00
2022-08-14T07:00:31.225Z,72.72
2022-08-14T07:03:17.293Z,70.05
2022-08-14T07:05:57.627Z,71.27
2022-08-14T07:08:29.452Z,71.69
2022-08-14T07:11:00.771Z,70.87
2022-08-14T07:13:30.482Z,69.18
2022-08-14T07:16:00.512Z,67.24
2022-08-14T07:18:34.723Z,68.77
2022-08-14T07:21:05.665Z,68.19
2022-08-14T07:23:35.147Z,67.50
2022-08-14T07:26:10.236Z,61.85
2022-08-14T07:28:43.250Z,60.97
2022-08-14T07:31:12.831Z,60.72
2022-08-14T07:33:43.551Z,59.72
2022-08-14T07:36:26.566Z,59.41
2022-08-14T07:38:57.800Z,58.66
2022-08-14T07:41:34.041Z,56.67
2022-08-14T07:44:29.636Z,55.25
2022-08-14T07:46:51.785Z,54.56
2022-08-14T07:49:19.853Z,54.38
2022-08-14T07:51:49.600Z,55.21
2022-08-14T07:54:23.160Z,51.89
2022-08-14T07:56:57.895Z,52.65
2022-08-14T07:59:42.232Z,52.32
2022-08-14T08:02:17.060Z,49.50
2022-08-14T08:04:49.601Z,47.15
2022-08-14T08:07:18.781Z,46.00
2022-08-14T08:09:53.221Z,45.50
2022-08-14T08:12:26.256Z,45.97
2022-08-14T08:15:05.928Z,44.09
2022-08-14T08:17:38.786Z,42.63
2022-08-14T08:20:09.300Z,41.92
2022-08-14T08:22:48.093Z,43.90
2022-08-14T08:25:18.895Z,41.08
2022-08-14T08:27:56.668Z,42.52
2022-08-14T08:30:24.893Z,40.05
2022-08-14T08:32:53.980Z,40.86
2022-08-14T08:35:23.497Z,39.89
2022-08-14T08:38:01.424Z,41.00
2022-08-14T08:40:35.705Z,41.25
2022-08-14T08:43:18.543Z,39.08
2022-08-14T08:45:55.310Z,38.82
2022-08-14T08:48:31.816Z,35.36
2022-08-14T08:51:06.194Z,36.52
2022-08-14T08:53:36.448Z,37.30
2022-08-14T08:56:05.103Z,36.87
2022-08-14T08:58:33.917Z,40.62
2022-08-14T09:01:01.788Z,36.71
2022-08-14T09:03:32.255Z,36.29
2022-08-14T09:06:02.741Z,38.40
2022-08-14T09:08:32.987Z,36.68
2022-08-14T09:11:19.110Z,34.85
2022-08-14T09:13:50.522Z,35.21
2022-08-14T09:16:21.147Z,33.64
2022-08-14T09:18:49.939Z,34.72
2022-08-14T09:21:24.099Z,38.09
2022-08-14T09:24:29.441Z,30.99
2022-08-14T09:26:49.584Z,31.30
2022-08-14T09:29:20.022Z,32.43
2022-08-14T09:31:57.048Z,34.52
2022-08-14T09:34:39.678Z,31.04
2022-08-14T09:37:42.164Z,30.56
2022-08-14T09:40:21.215Z,31.05
2022-08-14T09:42:59.220Z,29.02
2022-08-14T09:45:39.971Z,29.96
2022-08-14T09:48:29.915Z,31.78
2022-08-14T09:54:17.847Z,28.82
2022-08-14T09:56:30.734Z,31.18
2022-08-14T09:59:15.250Z,28.43
2022-08-14T10:01:46.289Z,30.03
2022-08-14T10:04:33.781Z,30.24
2022-08-14T10:07:03.828Z,28.68
2022-08-14T10:09:33.518Z,28.91
2022-08-14T10:12:04.560Z,28.18
2022-08-14T10:14:36.902Z,27.75
2022-08-14T10:17:08.440Z,28.73
2022-08-14T10:19:37.268Z,28.52
2022-08-14T10:23:15.405Z,31.56
2022-08-14T10:25:00.004Z,29.89
2022-08-14T10:27:28.743Z,29.34
2022-08-14T10:30:00.711Z,25.95
2022-08-14T10:32:41.822Z,26.53
2022-08-14T10:35:17.255Z,26.55
2022-08-14T10:37:48.572Z,28.98
2022-08-14T10:40:38.468Z,28.12
2022-08-14T10:43:17.969Z,28.05
2022-08-14T10:46:59.058Z,26.08
2022-08-14T10:48:57.573Z,26.00
2022-08-14T10:51:26.414Z,29.28
2022-08-14T10:53:56.246Z,27.50
2022-08-14T10:56:34.937Z,26.54
2022-08-14T10:59:03.790Z,26.42
2022-08-14T11:01:40.999Z,25.13
2022-08-14T11:04:30.108Z,27.53
2022-08-14T11:06:58.362Z,25.78
2022-08-14T11:09:31.449Z,25.13
2022-08-14T11:12:35.049Z,28.04
2022-08-14T11:14:59.116Z,25.79
2022-08-14T11:17:32.671Z,26.88
2022-08-14T11:20:01.903Z,28.16
2022-08-14T11:22:55.537Z,26.53
2022-08-14T11:25:20.567Z,26.46
2022-08-14T11:27:49.521Z,26.99
2022-08-14T11:30:50.161Z,22.13
2022-08-14T11:33:09.231Z,23.48
2022-08-14T11:35:47.742Z,24.04
2022-08-14T11:38:17.968Z,21.72
2022-08-14T11:40:47.413Z,23.79
2022-08-14T11:43:16.423Z,27.47
2022-08-14T11:45:48.678Z,23.75
2022-08-14T11:49:02.526Z,22.55
2022-08-14T11:51:16.845Z,22.98
2022-08-14T11:53:51.810Z,23.36
2022-08-14T11:56:25.254Z,22.94
2022-08-14T11:58:54.714Z,23.90
2022-08-14T12:01:31.201Z,25.04
2022-08-14T12:04:32.394Z,23.01
2022-08-14T12:07:01.246Z,23.57
2022-08-14T12:09:30.694Z,23.50
2022-08-14T12:11:58.837Z,22.47
2022-08-14T12:14:30.690Z,23.34
2022-08-14T12:17:12.767Z,24.16
2022-08-14T12:19:51.518Z,21.92
2022-08-14T12:22:34.347Z,23.42
2022-08-14T12:25:08.505Z,25.08
2022-08-14T12:27:41.713Z,22.84
2022-08-14T12:30:21.125Z,25.40
2022-08-14T12:32:49.085Z,20.70
2022-08-14T12:35:19.975Z,21.31
2022-08-14T12:37:50.740Z,24.41
2022-08-14T12:40:24.822Z,23.19
2022-08-14T12:42:56.790Z,21.61
2022-08-14T12:45:34.382Z,20.71
2022-08-14T12:48:21.481Z,22.89
2022-08-14T12:50:52.523Z,22.49
2022-08-14T12:53:20.846Z,20.45
2022-08-14T12:56:22.211Z,21.62
2022-08-14T12:58:52.551Z,21.59
2022-08-14T13:01:22.182Z,23.15
2022-08-14T13:03:51.834Z,21.75
2022-08-14T13:06:24.505Z,22.19
2022-08-14T13:11:40.850Z,18.00
2022-08-14T13:14:09.598Z,19.88
2022-08-14T13:16:45.662Z,19.91
2022-08-14T13:19:20.089Z,22.30
2022-08-14T13:21:58.689Z,20.36
2022-08-14T13:24:33.918Z,19.61
2022-08-14T13:27:04.968Z,20.98
2022-08-14T13:29:40.712Z,20.21
2022-08-14T13:32:11.814Z,21.21
2022-08-14T13:34:40.623Z,22.22
2022-08-14T13:37:10.201Z,20.19
2022-08-14T13:39:47.697Z,20.69
2022-08-14T13:42:30.488Z,21.27
2022-08-14T13:45:00.475Z,20.42
2022-08-14T13:47:30.869Z,18.84
2022-08-14T13:50:02.930Z,20.32
2022-08-14T13:52:52.683Z,21.65
2022-08-14T13:55:22.849Z,22.81
2022-08-14T13:58:03.192Z,19.64
2022-08-14T14:00:35.653Z,19.69
2022-08-14T14:03:19.740Z,19.69
2022-08-14T14:05:53.095Z,19.97
2022-08-14T14:08:43.084Z,18.69
2022-08-14T14:11:13.248Z,19.80
2022-08-14T14:13:45.329Z,20.81
2022-08-14T14:16:15.107Z,23.52
2022-08-14T14:18:46.137Z,23.02
2022-08-14T14:21:14.312Z,22.76
2022-08-14T14:23:44.459Z,20.89
2022-08-14T14:26:16.969Z,22.96
2022-08-14T14:28:51.559Z,23.18
2022-08-14T14:31:22.056Z,23.20
2022-08-14T14:34:00.315Z,22.51
2022-08-14T14:36:30.430Z,22.99
2022-08-14T14:39:01.160Z,20.62
2022-08-14T14:41:37.712Z,21.51
2022-08-14T14:44:09.110Z,21.80
2022-08-14T14:46:38.367Z,21.94
2022-08-14T14:49:14.678Z,21.48
2022-08-14T14:51:46.791Z,22.31
2022-08-14T14:54:32.047Z,21.97
2022-08-14T14:57:09.245Z,23.08
2022-08-14T14:59:37.506Z,22.40
2022-08-14T15:02:07.736Z,24.34
2022-08-14T15:04:37.821Z,23.99
2022-08-14T15:07:06.357Z,23.51
2022-08-14T15:09:35.852Z,23.04
2022-08-14T15:12:16.194Z,22.72
2022-08-14T15:14:56.585Z,20.56
2022-08-14T15:17:28.474Z,20.88
2022-08-14T15:19:57.327Z,22.98
2022-08-14T15:22:25.448Z,24.07
2022-08-14T15:24:54.613Z,21.67
2022-08-14T15:27:26.637Z,23.39
2022-08-14T15:29:55.082Z,23.07
2022-08-14T15:32:23.593Z,21.71
2022-08-14T15:34:52.834Z,22.46
2022-08-14T15:37:22.892Z,24.02
2022-08-14T15:39:52.600Z,23.87
2022-08-14T15:42:23.091Z,22.85
2022-08-14T15:44:57.908Z,22.09
2022-08-14T15:47:30.819Z,23.81
2022-08-14T15:50:00.217Z,22.92
2022-08-14T15:52:32.420Z,24.83
2022-08-14T15:55:03.570Z,25.07
2022-08-14T15:57:33.502Z,24.55
2022-08-14T16:00:40.656Z,23.64
2022-08-14T16:03:12.735Z,24.78
2022-08-14T16:05:43.616Z,23.46
2022-08-14T16:08:27.182Z,24.88
2022-08-14T16:10:57.682Z,24.99
2022-08-14T16:13:40.564Z,23.89
2022-08-14T16:16:34.493Z,24.35
2022-08-14T16:22:01.447Z,24.31
2022-08-14T16:25:00.310Z,25.30
2022-08-14T16:27:38.903Z,25.95
2022-08-14T16:30:24.947Z,26.34
2022-08-14T16:32:56.627Z,26.42
2022-08-14T16:35:42.942Z,25.73
2022-08-14T16:38:35.747Z,26.09
2022-08-14T16:40:23.790Z,24.82
2022-08-14T16:41:23.348Z,25.29
2022-08-14T16:43:54.260Z,26.22
2022-08-14T16:46:32.678Z,27.16
2022-08-14T16:49:01.040Z,26.45
2022-08-14T16:51:30.937Z,25.09
2022-08-14T16:54:04.272Z,27.29
2022-08-14T16:56:48.847Z,25.58
2022-08-14T16:59:18.296Z,26.37
2022-08-14T17:01:56.358Z,26.04
2022-08-14T17:04:29.081Z,24.05
2022-08-14T17:06:57.834Z,24.98
2022-08-14T17:09:43.398Z,26.20
2022-08-14T17:12:28.730Z,25.08
2022-08-14T17:15:09.833Z,27.64
2022-08-14T17:17:58.299Z,27.16
2022-08-14T17:20:39.581Z,28.29
2022-08-14T17:23:15.932Z,27.23
2022-08-14T17:25:50.675Z,28.51
2022-08-14T17:28:51.256Z,28.84
2022-08-14T17:31:08.441Z,28.85
2022-08-14T17:33:40.777Z,28.38
2022-08-14T17:36:21.512Z,29.87
2022-08-14T17:38:59.900Z,29.83
2022-08-14T17:41:35.978Z,30.03
2022-08-14T17:44:12.143Z,30.24
2022-08-14T17:46:43.540Z,30.69
2022-08-14T17:49:18.093Z,30.93
2022-08-14T17:52:07.822Z,32.13
2022-08-14T17:54:47.468Z,31.49
2022-08-14T17:57:23.155Z,30.41
2022-08-14T17:59:52.859Z,30.27
2022-08-14T18:02:23.264Z,32.06
2022-08-14T18:05:03.205Z,31.73
2022-08-14T18:08:33.227Z,32.93
2022-08-14T18:10:51.793Z,32.34
2022-08-14T18:13:10.731Z,32.65
2022-08-14T18:15:41.378Z,33.35
2022-08-14T18:18:11.927Z,33.51
2022-08-14T18:21:24.128Z,33.21
2022-08-14T18:23:29.475Z,34.55
2022-08-14T18:25:59.985Z,34.77
2022-08-14T18:28:51.897Z,34.11
2022-08-14T18:31:42.326Z,35.00
2022-08-14T18:34:31.833Z,35.47
2022-08-14T18:37:17.033Z,35.31
2022-08-14T18:40:02.001Z,35.33
2022-08-14T18:42:44.680Z,37.13
2022-08-14T18:45:15.885Z,36.23
2022-08-14T18:50:52.181Z,37.24
2022-08-14T18:53:24.554Z,37.20
2022-08-14T18:55:54.879Z,37.39
2022-08-14T18:58:34.054Z,38.34
2022-08-14T19:01:04.660Z,39.87
2022-08-14T19:03:57.600Z,39.50
2022-08-14T19:06:42.849Z,39.79
2022-08-14T19:09:43.970Z,39.34
2022-08-14T19:12:57.704Z,40.02
2022-08-14T19:15:28.367Z,39.70
2022-08-14T19:18:14.763Z,40.82
2022-08-14T19:20:52.814Z,41.55
2022-08-14T19:23:23.843Z,41.56
2022-08-14T19:26:34.181Z,42.01
2022-08-14T19:29:37.581Z,42.55
2022-08-14T19:32:36.445Z,42.47
2022-08-14T19:35:14.813Z,42.12
2022-08-14T19:37:52.086Z,42.85
2022-08-14T19:40:33.255Z,44.19
2022-08-14T19:43:03.265Z,43.19
2022-08-14T19:45:36.785Z,43.86
2022-08-14T19:48:12.103Z,46.77
2022-08-14T19:50:41.022Z,45.24
2022-08-14T19:53:17.412Z,45.16
2022-08-14T19:55:57.606Z,47.37
2022-08-14T19:58:38.058Z,46.63
2022-08-14T20:01:36.986Z,46.65
2022-08-14T20:04:08.342Z,45.78
2022-08-14T20:06:57.088Z,45.06
2022-08-14T20:11:03.748Z,46.26
2022-08-14T20:12:34.600Z,47.00
2022-08-14T20:15:08.723Z,47.99
2022-08-14T20:17:40.497Z,47.27
2022-08-14T20:20:20.909Z,47.81
2022-08-14T20:22:58.814Z,46.93
2022-08-14T20:25:36.881Z,48.29
2022-08-14T20:28:30.256Z,48.36
2022-08-14T20:31:14.065Z,48.52
2022-08-14T20:34:03.366Z,48.61
2022-08-14T20:36:31.637Z,47.35
2022-08-14T20:39:00.315Z,48.06
2022-08-14T20:41:27.997Z,48.16
2022-08-14T20:44:15.320Z,48.55
2022-08-14T20:46:49.996Z,48.27
2022-08-14T20:49:29.280Z,49.49
2022-08-14T20:52:00.064Z,47.75
2022-08-14T20:54:36.827Z,48.29
2022-08-14T20:57:17.898Z,48.43
2022-08-14T20:59:50.321Z,48.17
2022-08-14T21:02:29.518Z,50.20
2022-08-14T21:05:00.626Z,49.81
2022-08-14T21:07:36.637Z,50.92
2022-08-14T21:10:33.240Z,51.27
2022-08-14T21:14:18.731Z,50.71
2022-08-14T21:15:44.322Z,51.13
2022-08-14T21:18:28.902Z,51.35
2022-08-14T21:20:58.506Z,50.31
2022-08-14T21:23:32.834Z,50.44
2022-08-14T21:26:03.698Z,50.69
2022-08-14T21:31:04.365Z,52.69
2022-08-14T21:33:35.466Z,53.37
2022-08-14T21:36:07.746Z,54.51
2022-08-14T21:38:38.045Z,55.52
2022-08-14T21:41:42.385Z,56.82
2022-08-14T21:44:18.260Z,55.54
2022-08-14T21:46:49.908Z,54.19
2022-08-14T21:49:21.033Z,54.31
2022-08-14T21:51:57.178Z,54.94
2022-08-14T21:54:32.554Z,53.66
2022-08-14T21:58:04.004Z,54.06
2022-08-14T22:00:34.952Z,53.31
2022-08-14T22:03:05.058Z,54.20
2022-08-14T22:05:34.274Z,53.73
2022-08-14T22:08:06.579Z,55.16
2022-08-14T22:10:35.719Z,53.67
2022-08-14T22:13:03.505Z,54.38
2022-08-14T22:15:33.326Z,56.34
2022-08-14T22:18:04.126Z,55.78
2022-08-14T22:20:34.031Z,55.82
2022-08-14T22:23:04.321Z,55.45
2022-08-14T22:25:33.939Z,55.74
2022-08-14T22:28:03.002Z,56.48
2022-08-14T22:30:31.402Z,55.67
2022-08-14T22:33:00.243Z,55.75
2022-08-14T22:35:29.207Z,56.50
2022-08-14T22:38:34.694Z,56.45
2022-08-14T22:41:07.628Z,58.99
2022-08-14T22:43:35.967Z,56.94
2022-08-14T22:46:06.168Z,57.21
2022-08-14T22:48:43.348Z,56.27
2022-08-14T22:51:13.610Z,55.48
2022-08-14T22:53:42.941Z,56.38
2022-08-14T22:56:20.142Z,55.45
2022-08-14T22:58:53.580Z,56.17
2022-08-14T23:01:24.920Z,55.95
2022-08-14T23:04:12.560Z,55.88
2022-08-14T23:07:04.815Z,56.69
2022-08-14T23:09:38.091Z,56.83
2022-08-14T23:12:28.020Z,56.83
2022-08-14T23:14:55.682Z,56.79
2022-08-14T23:17:23.365Z,56.41
2022-08-14T23:19:56.686Z,57.57
2022-08-14T23:22:26.222Z,57.40
2022-08-14T23:24:57.780Z,57.04
2022-08-14T23:27:32.108Z,57.34
2022-08-14T23:30:31.417Z,58.22
2022-08-14T23:33:03.195Z,59.08
2022-08-14T23:35:33.316Z,59.01
2022-08-14T23:38:02.865Z,60.32
2022-08-14T23:40:32.169Z,58.40
2022-08-14T23:43:04.658Z,59.27
2022-08-14T23:45:36.725Z,59.50
2022-08-14T23:48:10.057Z,60.99
2022-08-14T23:50:41.426Z,58.99
2022-08-14T23:53:28.518Z,58.88
2022-08-14T23:56:08.305Z,58.38
2022-08-14T23:58:37.078Z,57.21
